sensor_id;sensor_type;location;lat;lon;timestamp;pressure;altitude;pressure_sealevel;temperature;humidity
34586;BME280;20816;50.950;11.108;2024-02-21T00:00:12;99088.69;;;7.67;94.66
34586;BME280;20816;50.950;11.108;2024-02-21T00:02:39;99086.09;;;7.53;95.20
34586;BME280;20816;50.950;11.108;2024-02-21T00:05:06;99083.50;;;7.51;95.79
34586;BME280;20816;50.950;11.108;2024-02-21T00:07:33;99073.88;;;7.63;95.49
34586;BME280;20816;50.950;11.108;2024-02-21T00:09:59;99079.09;;;7.55;95.84
34586;BME280;20816;50.950;11.108;2024-02-21T00:12:27;99072.13;;;7.54;95.59
34586;BME280;20816;50.950;11.108;2024-02-21T00:14:54;99064.31;;;7.51;96.09
34586;BME280;20816;50.950;11.108;2024-02-21T00:17:21;99062.56;;;7.45;96.41
34586;BME280;20816;50.950;11.108;2024-02-21T00:19:47;99056.44;;;7.48;96.21
34586;BME280;20816;50.950;11.108;2024-02-21T00:22:14;99042.50;;;7.59;95.34
34586;BME280;20816;50.950;11.108;2024-02-21T00:24:41;99045.09;;;7.59;96.08
34586;BME280;20816;50.950;11.108;2024-02-21T00:27:08;99037.25;;;7.61;95.08
34586;BME280;20816;50.950;11.108;2024-02-21T00:29:34;99045.13;;;7.53;95.74
34586;BME280;20816;50.950;11.108;2024-02-21T00:32:01;99043.38;;;7.58;95.54
34586;BME280;20816;50.950;11.108;2024-02-21T00:34:28;99043.38;;;7.58;94.81
34586;BME280;20816;50.950;11.108;2024-02-21T00:36:55;99035.50;;;7.57;94.50
34586;BME280;20816;50.950;11.108;2024-02-21T00:39:22;99039.03;;;7.50;95.18
34586;BME280;20816;50.950;11.108;2024-02-21T00:41:48;99024.16;;;7.66;94.18
34586;BME280;20816;50.950;11.108;2024-02-21T00:44:15;99030.28;;;7.57;94.77
34586;BME280;20816;50.950;11.108;2024-02-21T00:46:42;99024.19;;;7.59;94.80
34586;BME280;20816;50.950;11.108;2024-02-21T00:49:09;99018.97;;;7.53;94.45
34586;BME280;20816;50.950;11.108;2024-02-21T00:51:35;99027.69;;;7.54;94.43
34586;BME280;20816;50.950;11.108;2024-02-21T00:54:02;99030.31;;;7.49;94.64
34586;BME280;20816;50.950;11.108;2024-02-21T00:56:29;99035.50;;;7.55;94.07
34586;BME280;20816;50.950;11.108;2024-02-21T00:58:57;99028.50;;;7.65;92.98
34586;BME280;20816;50.950;11.108;2024-02-21T01:01:25;99024.19;;;7.59;93.95
34586;BME280;20816;50.950;11.108;2024-02-21T01:03:52;99023.28;;;7.62;93.60
34586;BME280;20816;50.950;11.108;2024-02-21T01:06:21;99015.44;;;7.61;94.07
34586;BME280;20816;50.950;11.108;2024-02-21T01:08:49;99014.59;;;7.55;94.21
34586;BME280;20816;50.950;11.108;2024-02-21T01:11:16;99008.47;;;7.59;94.07
34586;BME280;20816;50.950;11.108;2024-02-21T01:13:43;99016.34;;;7.47;94.08
34586;BME280;20816;50.950;11.108;2024-02-21T01:16:10;99020.75;;;7.42;94.20
34586;BME280;20816;50.950;11.108;2024-02-21T01:18:37;99022.47;;;7.49;94.23
34586;BME280;20816;50.950;11.108;2024-02-21T01:21:06;99024.19;;;7.47;94.02
34586;BME280;20816;50.950;11.108;2024-02-21T01:23:34;99024.22;;;7.50;94.08
34586;BME280;20816;50.950;11.108;2024-02-21T01:26:02;99015.44;;;7.61;92.86
34586;BME280;20816;50.950;11.108;2024-02-21T01:28:29;99003.25;;;7.59;95.09
34586;BME280;20816;50.950;11.108;2024-02-21T01:30:57;98998.88;;;7.60;95.49
34586;BME280;20816;50.950;11.108;2024-02-21T01:33:24;99004.97;;;7.67;94.60
34586;BME280;20816;50.950;11.108;2024-02-21T01:35:51;98995.38;;;7.66;95.45
34586;BME280;20816;50.950;11.108;2024-02-21T01:38:17;98996.31;;;7.49;97.04
34586;BME280;20816;50.950;11.108;2024-02-21T01:40:44;98997.22;;;7.36;98.37
34586;BME280;20816;50.950;11.108;2024-02-21T01:43:16;98985.84;;;7.45;97.95
34586;BME280;20816;50.950;11.108;2024-02-21T01:45:47;98985.88;;;7.43;98.44
34586;BME280;20816;50.950;11.108;2024-02-21T01:48:16;98984.16;;;7.36;99.51
34586;BME280;20816;50.950;11.108;2024-02-21T01:50:46;98987.59;;;7.44;100.00
34586;BME280;20816;50.950;11.108;2024-02-21T01:53:14;98978.03;;;7.31;100.00
34586;BME280;20816;50.950;11.108;2024-02-21T01:55:45;98987.66;;;7.29;100.00
34586;BME280;20816;50.950;11.108;2024-02-21T01:58:16;98974.56;;;7.35;100.00
34586;BME280;20816;50.950;11.108;2024-02-21T02:00:44;98965.00;;;7.28;100.00
34586;BME280;20816;50.950;11.108;2024-02-21T02:03:12;98958.00;;;7.24;100.00
34586;BME280;20816;50.950;11.108;2024-02-21T02:05:46;98951.91;;;7.23;100.00
34586;BME280;20816;50.950;11.108;2024-02-21T02:08:14;98956.28;;;7.23;100.00
34586;BME280;20816;50.950;11.108;2024-02-21T02:10:41;98964.13;;;7.21;100.00
34586;BME280;20816;50.950;11.108;2024-02-21T02:13:09;98954.56;;;7.19;100.00
34586;BME280;20816;50.950;11.108;2024-02-21T02:18:06;98960.66;;;7.15;100.00
34586;BME280;20816;50.950;11.108;2024-02-21T02:20:33;98968.50;;;7.15;100.00
34586;BME280;20816;50.950;11.108;2024-02-21T02:25:29;98972.84;;;7.14;100.00
34586;BME280;20816;50.950;11.108;2024-02-21T02:27:57;98966.78;;;7.08;100.00
34586;BME280;20816;50.950;11.108;2024-02-21T02:30:23;98965.88;;;7.15;100.00
34586;BME280;20816;50.950;11.108;2024-02-21T02:32:50;98969.38;;;7.12;100.00
34586;BME280;20816;50.950;11.108;2024-02-21T02:35:17;98969.38;;;7.06;100.00
34586;BME280;20816;50.950;11.108;2024-02-21T02:37:48;98969.38;;;7.06;100.00
34586;BME280;20816;50.950;11.108;2024-02-21T02:40:17;98977.22;;;7.14;100.00
34586;BME280;20816;50.950;11.108;2024-02-21T02:42:44;98976.34;;;7.21;100.00
34586;BME280;20816;50.950;11.108;2024-02-21T02:45:11;98965.88;;;7.22;100.00
34586;BME280;20816;50.950;11.108;2024-02-21T02:47:39;98971.97;;;7.23;100.00
34586;BME280;20816;50.950;11.108;2024-02-21T02:50:07;98964.13;;;7.27;100.00
34586;BME280;20816;50.950;11.108;2024-02-21T02:52:34;98963.22;;;7.30;100.00
34586;BME280;20816;50.950;11.108;2024-02-21T02:55:01;98964.13;;;7.26;100.00
34586;BME280;20816;50.950;11.108;2024-02-21T02:57:28;98958.00;;;7.30;100.00
34586;BME280;20816;50.950;11.108;2024-02-21T02:59:55;98961.47;;;7.32;100.00
34586;BME280;20816;50.950;11.108;2024-02-21T03:02:21;98961.50;;;7.29;100.00
34586;BME280;20816;50.950;11.108;2024-02-21T03:04:49;98964.13;;;7.34;100.00
34586;BME280;20816;50.950;11.108;2024-02-21T03:07:16;98952.78;;;7.33;100.00
34586;BME280;20816;50.950;11.108;2024-02-21T03:09:43;98951.88;;;7.37;100.00
34586;BME280;20816;50.950;11.108;2024-02-21T03:12:09;98949.28;;;7.37;100.00
34586;BME280;20816;50.950;11.108;2024-02-21T03:14:36;98940.56;;;7.41;100.00
34586;BME280;20816;50.950;11.108;2024-02-21T03:17:03;98937.09;;;7.30;100.00
34586;BME280;20816;50.950;11.108;2024-02-21T03:19:30;98928.38;;;7.34;100.00
34586;BME280;20816;50.950;11.108;2024-02-21T03:21:56;98916.19;;;7.28;100.00
34586;BME280;20816;50.950;11.108;2024-02-21T03:24:23;98927.50;;;7.32;100.00
34586;BME280;20816;50.950;11.108;2024-02-21T03:26:50;98913.56;;;7.30;100.00
34586;BME280;20816;50.950;11.108;2024-02-21T03:29:17;98931.00;;;7.23;100.00
34586;BME280;20816;50.950;11.108;2024-02-21T03:31:44;98929.25;;;7.28;100.00
34586;BME280;20816;50.950;11.108;2024-02-21T03:34:10;98924.03;;;7.33;100.00
34586;BME280;20816;50.950;11.108;2024-02-21T03:36:38;98919.66;;;7.29;100.00
34586;BME280;20816;50.950;11.108;2024-02-21T03:39:05;98937.09;;;7.30;100.00
34586;BME280;20816;50.950;11.108;2024-02-21T03:41:31;98931.81;;;7.39;100.00
34586;BME280;20816;50.950;11.108;2024-02-21T03:43:58;98923.09;;;7.45;100.00
34586;BME280;20816;50.950;11.108;2024-02-21T03:46:25;98921.38;;;7.36;100.00
34586;BME280;20816;50.950;11.108;2024-02-21T03:48:52;98911.78;;;7.40;100.00
34586;BME280;20816;50.950;11.108;2024-02-21T03:51:19;98898.72;;;7.32;100.00
34586;BME280;20816;50.950;11.108;2024-02-21T03:53:45;98886.47;;;7.46;100.00
34586;BME280;20816;50.950;11.108;2024-02-21T03:56:12;98879.53;;;7.39;100.00
34586;BME280;20816;50.950;11.108;2024-02-21T03:58:39;98876.94;;;7.36;100.00
34586;BME280;20816;50.950;11.108;2024-02-21T04:01:05;98866.50;;;7.24;100.00
34586;BME280;20816;50.950;11.108;2024-02-21T04:03:32;98867.41;;;7.26;100.00
34586;BME280;20816;50.950;11.108;2024-02-21T04:05:59;98868.28;;;7.26;100.00
34586;BME280;20816;50.950;11.108;2024-02-21T04:08:27;98863.03;;;7.28;100.00
34586;BME280;20816;50.950;11.108;2024-02-21T04:10:54;98862.13;;;7.32;100.00
34586;BME280;20816;50.950;11.108;2024-02-21T04:13:20;98855.13;;;7.39;100.00
34586;BME280;20816;50.950;11.108;2024-02-21T04:15:49;98854.28;;;7.34;100.00
34586;BME280;20816;50.950;11.108;2024-02-21T04:18:16;98856.94;;;7.23;100.00
34586;BME280;20816;50.950;11.108;2024-02-21T04:20:43;98844.75;;;7.25;100.00
34586;BME280;20816;50.950;11.108;2024-02-21T04:23:10;98835.94;;;7.38;100.00
34586;BME280;20816;50.950;11.108;2024-02-21T04:25:36;98847.31;;;7.32;100.00
34586;BME280;20816;50.950;11.108;2024-02-21T04:28:03;98846.47;;;7.24;100.00
34586;BME280;20816;50.950;11.108;2024-02-21T04:30:30;98837.75;;;7.33;100.00
34586;BME280;20816;50.950;11.108;2024-02-21T04:32:57;98834.22;;;7.37;100.00
34586;BME280;20816;50.950;11.108;2024-02-21T04:35:23;98832.50;;;7.30;100.00
34586;BME280;20816;50.950;11.108;2024-02-21T04:37:50;98825.50;;;7.32;100.00
34586;BME280;20816;50.950;11.108;2024-02-21T04:40:17;98832.50;;;7.30;100.00
34586;BME280;20816;50.950;11.108;2024-02-21T04:42:44;98837.75;;;7.28;100.00
34586;BME280;20816;50.950;11.108;2024-02-21T04:45:11;98849.13;;;7.20;100.00
34586;BME280;20816;50.950;11.108;2024-02-21T04:47:37;98855.19;;;7.22;100.00
34586;BME280;20816;50.950;11.108;2024-02-21T04:50:04;98849.09;;;7.21;100.00
34586;BME280;20816;50.950;11.108;2024-02-21T04:52:32;98855.22;;;7.16;100.00
34586;BME280;20816;50.950;11.108;2024-02-21T04:54:59;98857.81;;;7.25;100.00
34586;BME280;20816;50.950;11.108;2024-02-21T04:57:26;98843.00;;;7.22;100.00
34586;BME280;20816;50.950;11.108;2024-02-21T04:59:53;98840.38;;;7.24;100.00
34586;BME280;20816;50.950;11.108;2024-02-21T05:02:19;98843.00;;;7.22;100.00
34586;BME280;20816;50.950;11.108;2024-02-21T05:04:49;98834.28;;;7.22;100.00
34586;BME280;20816;50.950;11.108;2024-02-21T05:07:16;98833.41;;;7.26;100.00
34586;BME280;20816;50.950;11.108;2024-02-21T05:09:43;98820.31;;;7.30;100.00
34586;BME280;20816;50.950;11.108;2024-02-21T05:12:09;98824.72;;;7.25;100.00
34586;BME280;20816;50.950;11.108;2024-02-21T05:14:36;98819.47;;;7.25;100.00
34586;BME280;20816;50.950;11.108;2024-02-21T05:17:04;98816.88;;;7.25;100.00
34586;BME280;20816;50.950;11.108;2024-02-21T05:19:31;98808.16;;;7.25;100.00
34586;BME280;20816;50.950;11.108;2024-02-21T05:21:59;98803.72;;;7.31;100.00
34586;BME280;20816;50.950;11.108;2024-02-21T05:24:26;98802.94;;;7.25;100.00
34586;BME280;20816;50.950;11.108;2024-02-21T05:26:53;98795.06;;;7.26;100.00
34586;BME280;20816;50.950;11.108;2024-02-21T05:29:20;98792.38;;;7.37;100.00
34586;BME280;20816;50.950;11.108;2024-02-21T05:34:22;98788.13;;;7.21;100.00
34586;BME280;20816;50.950;11.108;2024-02-21T05:36:49;98795.97;;;7.21;100.00
34586;BME280;20816;50.950;11.108;2024-02-21T05:39:19;98790.72;;;7.27;100.00
34586;BME280;20816;50.950;11.108;2024-02-21T05:41:46;98800.25;;;7.32;100.00
34586;BME280;20816;50.950;11.108;2024-02-21T05:44:12;98807.25;;;7.27;100.00
34586;BME280;20816;50.950;11.108;2024-02-21T05:46:39;98809.88;;;7.26;100.00
34586;BME280;20816;50.950;11.108;2024-02-21T05:49:06;98797.66;;;7.28;100.00
34586;BME280;20816;50.950;11.108;2024-02-21T05:51:34;98792.41;;;7.34;100.00
34586;BME280;20816;50.950;11.108;2024-02-21T05:54:01;98794.16;;;7.30;100.00
34586;BME280;20816;50.950;11.108;2024-02-21T05:56:28;98793.22;;;7.42;100.00
34586;BME280;20816;50.950;11.108;2024-02-21T05:58:55;98785.41;;;7.36;100.00
34586;BME280;20816;50.950;11.108;2024-02-21T06:01:22;98791.53;;;7.30;100.00
34586;BME280;20816;50.950;11.108;2024-02-21T06:03:48;98782.75;;;7.41;100.00
34586;BME280;20816;50.950;11.108;2024-02-21T06:06:15;98778.47;;;7.35;100.00
34586;BME280;20816;50.950;11.108;2024-02-21T06:08:42;98778.50;;;7.29;100.00
34586;BME280;20816;50.950;11.108;2024-02-21T06:11:09;98772.38;;;7.33;100.00
34586;BME280;20816;50.950;11.108;2024-02-21T06:13:38;98775.00;;;7.33;100.00
34586;BME280;20816;50.950;11.108;2024-02-21T06:16:06;98764.47;;;7.41;100.00
34586;BME280;20816;50.950;11.108;2024-02-21T06:18:35;98751.41;;;7.38;100.00
34586;BME280;20816;50.950;11.108;2024-02-21T06:21:04;98735.72;;;7.39;100.00
34586;BME280;20816;50.950;11.108;2024-02-21T06:23:31;98732.25;;;7.36;100.00
34586;BME280;20816;50.950;11.108;2024-02-21T06:25:57;98730.50;;;7.38;100.00
34586;BME280;20816;50.950;11.108;2024-02-21T06:28:25;98743.63;;;7.33;100.00
34586;BME280;20816;50.950;11.108;2024-02-21T06:30:52;98765.44;;;7.23;100.00
34586;BME280;20816;50.950;11.108;2024-02-21T06:33:19;98775.06;;;7.21;100.00
34586;BME280;20816;50.950;11.108;2024-02-21T06:35:51;98780.22;;;7.33;100.00
34586;BME280;20816;50.950;11.108;2024-02-21T06:38:19;98794.16;;;7.29;100.00
34586;BME280;20816;50.950;11.108;2024-02-21T06:40:46;98796.78;;;7.30;100.00
34586;BME280;20816;50.950;11.108;2024-02-21T06:43:17;98795.81;;;7.45;100.00
34586;BME280;20816;50.950;11.108;2024-02-21T06:45:45;98794.13;;;7.38;100.00
34586;BME280;20816;50.950;11.108;2024-02-21T06:48:18;98806.31;;;7.39;100.00
34586;BME280;20816;50.950;11.108;2024-02-21T06:50:46;98818.47;;;7.46;100.00
34586;BME280;20816;50.950;11.108;2024-02-21T06:53:13;98817.66;;;7.41;100.00
34586;BME280;20816;50.950;11.108;2024-02-21T06:55:39;98806.25;;;7.51;100.00
34586;BME280;20816;50.950;11.108;2024-02-21T06:58:06;98807.97;;;7.52;100.00
34586;BME280;20816;50.950;11.108;2024-02-21T07:00:39;98823.63;;;7.62;100.00
34586;BME280;20816;50.950;11.108;2024-02-21T07:03:06;98820.13;;;7.63;100.00
34586;BME280;20816;50.950;11.108;2024-02-21T07:05:32;98816.69;;;7.57;100.00
34586;BME280;20816;50.950;11.108;2024-02-21T07:08:00;98830.63;;;7.59;100.00
34586;BME280;20816;50.950;11.108;2024-02-21T07:10:27;98821.91;;;7.57;100.00
34586;BME280;20816;50.950;11.108;2024-02-21T07:12:55;98812.31;;;7.55;100.00
34586;BME280;20816;50.950;11.108;2024-02-21T07:15:22;98797.50;;;7.55;100.00
34586;BME280;20816;50.950;11.108;2024-02-21T07:17:53;98795.69;;;7.64;100.00
34586;BME280;20816;50.950;11.108;2024-02-21T07:20:20;98782.66;;;7.61;100.00
34586;BME280;20816;50.950;11.108;2024-02-21T07:22:46;98788.72;;;7.64;100.00
34586;BME280;20816;50.950;11.108;2024-02-21T07:25:13;98778.25;;;7.63;100.00
34586;BME280;20816;50.950;11.108;2024-02-21T07:27:40;98792.25;;;7.58;100.00
34586;BME280;20816;50.950;11.108;2024-02-21T07:30:08;98790.53;;;7.57;100.00
34586;BME280;20816;50.950;11.108;2024-02-21T07:32:38;98792.25;;;7.55;100.00
34586;BME280;20816;50.950;11.108;2024-02-21T07:35:04;98790.53;;;7.54;100.00
34586;BME280;20816;50.950;11.108;2024-02-21T07:37:32;98798.34;;;7.61;100.00
34586;BME280;20816;50.950;11.108;2024-02-21T07:39:59;98806.16;;;7.67;100.00
34586;BME280;20816;50.950;11.108;2024-02-21T07:42:25;98802.66;;;7.68;100.00
34586;BME280;20816;50.950;11.108;2024-02-21T07:44:52;98797.44;;;7.63;100.00
34586;BME280;20816;50.950;11.108;2024-02-21T07:47:19;98808.78;;;7.64;100.00
34586;BME280;20816;50.950;11.108;2024-02-21T07:49:46;98800.06;;;7.62;100.00
34586;BME280;20816;50.950;11.108;2024-02-21T07:52:13;98796.63;;;7.58;100.00
34586;BME280;20816;50.950;11.108;2024-02-21T07:54:41;98795.75;;;7.54;100.00
34586;BME280;20816;50.950;11.108;2024-02-21T07:57:07;98804.47;;;7.56;100.00
34586;BME280;20816;50.950;11.108;2024-02-21T07:59:34;98799.22;;;7.56;100.00
34586;BME280;20816;50.950;11.108;2024-02-21T08:02:01;98804.47;;;7.59;100.00
34586;BME280;20816;50.950;11.108;2024-02-21T08:04:29;98801.88;;;7.53;100.00
34586;BME280;20816;50.950;11.108;2024-02-21T08:06:56;98795.78;;;7.51;100.00
34586;BME280;20816;50.950;11.108;2024-02-21T08:09:22;98786.97;;;7.65;100.00
34586;BME280;20816;50.950;11.108;2024-02-21T08:11:49;98792.22;;;7.62;100.00
34586;BME280;20816;50.950;11.108;2024-02-21T08:14:17;98788.75;;;7.59;100.00
34586;BME280;20816;50.950;11.108;2024-02-21T08:16:47;98786.09;;;7.64;100.00
34586;BME280;20816;50.950;11.108;2024-02-21T08:19:13;98788.69;;;7.70;100.00
34586;BME280;20816;50.950;11.108;2024-02-21T08:21:41;98792.16;;;7.71;100.00
34586;BME280;20816;50.950;11.108;2024-02-21T08:24:07;98775.63;;;7.64;100.00
34586;BME280;20816;50.950;11.108;2024-02-21T08:26:34;98770.34;;;7.72;100.00
34586;BME280;20816;50.950;11.108;2024-02-21T08:29:02;98764.28;;;7.67;100.00
34586;BME280;20816;50.950;11.108;2024-02-21T08:31:29;98765.91;;;7.80;100.00
34586;BME280;20816;50.950;11.108;2024-02-21T08:33:58;98773.78;;;7.80;100.00
34586;BME280;20816;50.950;11.108;2024-02-21T08:36:34;98781.63;;;7.83;100.00
34586;BME280;20816;50.950;11.108;2024-02-21T08:39:02;98783.28;;;7.93;100.00
34586;BME280;20816;50.950;11.108;2024-02-21T08:41:32;98780.66;;;7.92;100.00
34586;BME280;20816;50.950;11.108;2024-02-21T08:44:24;98768.31;;;8.07;100.00
34586;BME280;20816;50.950;11.108;2024-02-21T08:46:55;98774.44;;;8.06;100.00
34586;BME280;20816;50.950;11.108;2024-02-21T08:49:22;98777.91;;;8.05;100.00
34586;BME280;20816;50.950;11.108;2024-02-21T08:51:51;98772.56;;;8.18;100.00
34586;BME280;20816;50.950;11.108;2024-02-21T08:54:18;98779.50;;;8.25;100.00
34586;BME280;20816;50.950;11.108;2024-02-21T08:56:44;98776.03;;;8.20;100.00
34586;BME280;20816;50.950;11.108;2024-02-21T08:59:11;98782.13;;;8.23;100.00
34586;BME280;20816;50.950;11.108;2024-02-21T09:01:38;98766.31;;;8.34;100.00
34586;BME280;20816;50.950;11.108;2024-02-21T09:04:05;98770.69;;;8.35;100.00
34586;BME280;20816;50.950;11.108;2024-02-21T09:06:32;98761.97;;;8.33;100.00
34586;BME280;20816;50.950;11.108;2024-02-21T09:09:00;98765.53;;;8.26;100.00
34586;BME280;20816;50.950;11.108;2024-02-21T09:11:27;98767.28;;;8.25;100.00
34586;BME280;20816;50.950;11.108;2024-02-21T09:13:55;98755.88;;;8.31;100.00
34586;BME280;20816;50.950;11.108;2024-02-21T09:16:21;98756.72;;;8.30;100.00
34586;BME280;20816;50.950;11.108;2024-02-21T09:18:50;98747.09;;;8.39;100.00
34586;BME280;20816;50.950;11.108;2024-02-21T09:21:17;98743.59;;;8.40;100.00
34586;BME280;20816;50.950;11.108;2024-02-21T09:23:45;98736.59;;;8.41;100.00
34586;BME280;20816;50.950;11.108;2024-02-21T09:26:11;98727.00;;;8.40;100.00
34586;BME280;20816;50.950;11.108;2024-02-21T09:28:45;98721.69;;;8.45;100.00
34586;BME280;20816;50.950;11.108;2024-02-21T09:31:14;98722.66;;;8.36;100.00
34586;BME280;20816;50.950;11.108;2024-02-21T09:33:41;98723.50;;;8.41;100.00
34586;BME280;20816;50.950;11.108;2024-02-21T09:36:08;98724.38;;;8.41;100.00
34586;BME280;20816;50.950;11.108;2024-02-21T09:38:35;98719.94;;;8.48;100.00
34586;BME280;20816;50.950;11.108;2024-02-21T09:41:27;98718.09;;;8.53;100.00
34586;BME280;20816;50.950;11.108;2024-02-21T09:43:54;98715.47;;;8.55;100.00
34586;BME280;20816;50.950;11.108;2024-02-21T09:46:47;98724.19;;;8.57;100.00
34586;BME280;20816;50.950;11.108;2024-02-21T09:49:30;98707.56;;;8.59;100.00
34586;BME280;20816;50.950;11.108;2024-02-21T09:52:01;98704.97;;;8.55;100.00
34586;BME280;20816;50.950;11.108;2024-02-21T09:54:33;98704.91;;;8.64;100.00
34586;BME280;20816;50.950;11.108;2024-02-21T09:57:00;98711.66;;;8.82;100.00
34586;BME280;20816;50.950;11.108;2024-02-21T09:59:28;98708.81;;;8.97;100.00
34586;BME280;20816;50.950;11.108;2024-02-21T10:01:56;98707.97;;;8.93;99.97
34586;BME280;20816;50.950;11.108;2024-02-21T10:04:23;98704.44;;;8.97;100.00
34586;BME280;20816;50.950;11.108;2024-02-21T10:06:50;98705.00;;;9.19;99.33
34586;BME280;20816;50.950;11.108;2024-02-21T10:09:35;98698.56;;;9.40;98.39
34586;BME280;20816;50.950;11.108;2024-02-21T10:12:09;98695.63;;;9.60;96.36
34586;BME280;20816;50.950;11.108;2024-02-21T10:14:38;98693.59;;;9.77;95.81
34586;BME280;20816;50.950;11.108;2024-02-21T10:17:05;98689.25;;;9.75;95.06
34586;BME280;20816;50.950;11.108;2024-02-21T10:19:37;98683.22;;;9.68;94.83
34586;BME280;20816;50.950;11.108;2024-02-21T10:22:05;98690.09;;;9.78;94.80
34586;BME280;20816;50.950;11.108;2024-02-21T10:24:32;98693.31;;;9.93;94.57
34586;BME280;20816;50.950;11.108;2024-02-21T10:27:03;98681.16;;;9.89;94.11
34586;BME280;20816;50.950;11.108;2024-02-21T10:29:31;98681.50;;;10.18;93.18
34586;BME280;20816;50.950;11.108;2024-02-21T10:32:14;98671.88;;;10.62;90.31
34586;BME280;20816;50.950;11.108;2024-02-21T10:34:42;98657.84;;;10.63;90.13
34586;BME280;20816;50.950;11.108;2024-02-21T10:37:11;98662.53;;;10.89;89.29
34586;BME280;20816;50.950;11.108;2024-02-21T10:39:40;98660.00;;;10.84;88.16
34586;BME280;20816;50.950;11.108;2024-02-21T10:42:10;98646.28;;;10.70;89.30
34586;BME280;20816;50.950;11.108;2024-02-21T10:44:38;98643.16;;;10.93;88.80
34586;BME280;20816;50.950;11.108;2024-02-21T10:47:10;98641.06;;;11.07;87.75
34586;BME280;20816;50.950;11.108;2024-02-21T10:49:40;98648.09;;;11.07;86.51
34586;BME280;20816;50.950;11.108;2024-02-21T10:55:29;98632.19;;;11.48;84.35
34586;BME280;20816;50.950;11.108;2024-02-21T10:57:53;98640.72;;;11.58;82.68
34586;BME280;20816;50.950;11.108;2024-02-21T11:00:21;98626.09;;;11.46;83.00
34586;BME280;20816;50.950;11.108;2024-02-21T11:02:51;98638.84;;;11.28;82.58
34586;BME280;20816;50.950;11.108;2024-02-21T11:05:18;98622.56;;;11.83;82.20
34586;BME280;20816;50.950;11.108;2024-02-21T11:07:45;98617.28;;;12.16;80.72
34586;BME280;20816;50.950;11.108;2024-02-21T11:10:25;98614.38;;;12.56;78.67
34586;BME280;20816;50.950;11.108;2024-02-21T11:13:04;98603.19;;;12.17;78.09
34586;BME280;20816;50.950;11.108;2024-02-21T11:15:31;98596.16;;;12.17;77.50
34586;BME280;20816;50.950;11.108;2024-02-21T11:17:58;98589.28;;;12.12;77.58
34586;BME280;20816;50.950;11.108;2024-02-21T11:20:34;98573.78;;;12.01;76.90
34586;BME280;20816;50.950;11.108;2024-02-21T11:23:02;98567.06;;;12.20;76.09
34586;BME280;20816;50.950;11.108;2024-02-21T11:25:29;98557.78;;;12.38;75.00
34586;BME280;20816;50.950;11.108;2024-02-21T11:28:04;98561.41;;;12.63;75.17
34586;BME280;20816;50.950;11.108;2024-02-21T11:30:31;98544.56;;;12.68;75.32
34586;BME280;20816;50.950;11.108;2024-02-21T11:33:07;98551.38;;;12.75;74.68
34586;BME280;20816;50.950;11.108;2024-02-21T11:35:35;98543.78;;;12.92;73.92
34586;BME280;20816;50.950;11.108;2024-02-21T11:38:10;98542.72;;;12.98;73.80
34586;BME280;20816;50.950;11.108;2024-02-21T11:40:40;98537.66;;;13.20;72.67
34586;BME280;20816;50.950;11.108;2024-02-21T11:43:07;98533.94;;;13.50;71.81
34586;BME280;20816;50.950;11.108;2024-02-21T11:45:34;98530.56;;;13.46;71.50
34586;BME280;20816;50.950;11.108;2024-02-21T11:48:01;98522.19;;;13.59;69.89
34586;BME280;20816;50.950;11.108;2024-02-21T11:50:30;98523.59;;;13.17;70.93
34586;BME280;20816;50.950;11.108;2024-02-21T11:52:57;98528.88;;;12.91;71.07
34586;BME280;20816;50.950;11.108;2024-02-21T11:55:24;98518.44;;;13.14;71.07
34586;BME280;20816;50.950;11.108;2024-02-21T11:57:51;98511.75;;;13.03;70.73
34586;BME280;20816;50.950;11.108;2024-02-21T12:00:18;98508.44;;;12.98;71.71
34586;BME280;20816;50.950;11.108;2024-02-21T12:02:49;98498.88;;;13.22;71.28
34586;BME280;20816;50.950;11.108;2024-02-21T12:05:18;98496.50;;;13.39;70.60
34586;BME280;20816;50.950;11.108;2024-02-21T12:07:46;98488.38;;;13.20;69.75
34586;BME280;20816;50.950;11.108;2024-02-21T12:10:13;98481.06;;;13.27;70.44
34586;BME280;20816;50.950;11.108;2024-02-21T12:12:40;98472.66;;;13.15;68.89
34586;BME280;20816;50.950;11.108;2024-02-21T12:15:08;98462.28;;;13.61;67.94
34586;BME280;20816;50.950;11.108;2024-02-21T12:17:35;98450.63;;;13.66;67.87
34586;BME280;20816;50.950;11.108;2024-02-21T12:20:03;98452.09;;;13.50;65.65
34586;BME280;20816;50.950;11.108;2024-02-21T12:22:32;98440.97;;;13.15;65.80
34586;BME280;20816;50.950;11.108;2024-02-21T12:24:59;98437.53;;;13.13;66.12
34586;BME280;20816;50.950;11.108;2024-02-21T12:27:26;98430.75;;;13.06;64.84
34586;BME280;20816;50.950;11.108;2024-02-21T12:29:53;98426.19;;;12.85;66.10
34586;BME280;20816;50.950;11.108;2024-02-21T12:32:19;98424.94;;;12.97;65.10
34586;BME280;20816;50.950;11.108;2024-02-21T12:34:46;98430.72;;;13.33;65.95
34586;BME280;20816;50.950;11.108;2024-02-21T12:37:22;98419.66;;;13.46;64.60
34586;BME280;20816;50.950;11.108;2024-02-21T12:39:49;98423.53;;;13.61;63.77
34586;BME280;20816;50.950;11.108;2024-02-21T12:42:15;98411.47;;;13.78;64.78
34586;BME280;20816;50.950;11.108;2024-02-21T12:44:44;98418.53;;;13.77;63.19
34586;BME280;20816;50.950;11.108;2024-02-21T12:47:10;98422.63;;;13.62;63.18
34586;BME280;20816;50.950;11.108;2024-02-21T12:49:37;98414.00;;;13.57;64.22
34586;BME280;20816;50.950;11.108;2024-02-21T12:52:10;98407.13;;;13.53;64.41
34586;BME280;20816;50.950;11.108;2024-02-21T12:54:38;98400.41;;;13.44;65.59
34586;BME280;20816;50.950;11.108;2024-02-21T12:57:04;98386.78;;;13.55;66.30
34586;BME280;20816;50.950;11.108;2024-02-21T12:59:32;98390.56;;;13.48;64.23
34586;BME280;20816;50.950;11.108;2024-02-21T13:01:59;98393.19;;;13.25;63.79
34586;BME280;20816;50.950;11.108;2024-02-21T13:04:25;98381.53;;;13.05;63.14
34586;BME280;20816;50.950;11.108;2024-02-21T13:06:52;98373.34;;;13.13;63.78